Time;durP1;ratioP1;P1;durP2;ratioP2;P2;SDS_P1;SDS_P2;PMS_P1;PMS_P2;Temp;Humidity;BMP_temperature;BMP_pressure;BME280_temperature;BME280_humidity;BME280_pressure;Samples;Min_cycle;Max_cycle;Signal;HPM_P1;HPM_P2
2022/10/15 00:00:45;;;;;;;;;3.50;3.50;;;;;16.77;84.30;100647.81;5038034;28;45357;-41
2022/10/15 00:03:10;;;;;;;;;7.75;5.75;;;;;16.76;84.79;100648.00;5038159;28;45323;-40
2022/10/15 00:05:37;;;;;;;;;8.50;7.00;;;;;16.76;84.83;100650.69;5038252;28;45323;-41
2022/10/15 00:08:03;;;;;;;;;9.00;7.00;;;;;16.75;85.16;100652.53;5038228;28;45477;-41
2022/10/15 00:10:28;;;;;;;;;7.50;6.25;;;;;16.71;85.10;100643.16;5037811;28;45382;-41
2022/10/15 00:12:54;;;;;;;;;11.67;11.33;;;;;16.73;85.28;100651.06;5019997;28;45400;-39
2022/10/15 00:15:19;;;;;;;;;12.00;10.50;;;;;16.72;85.61;100650.19;5037948;28;45760;-41
2022/10/15 00:17:45;;;;;;;;;13.50;13.00;;;;;16.67;86.08;100633.81;5038282;28;45245;-41
2022/10/15 00:20:11;;;;;;;;;9.25;8.50;;;;;16.71;85.93;100644.00;5036948;28;46195;-42
2022/10/15 00:22:37;;;;;;;;;13.50;8.50;;;;;16.71;86.08;100643.16;5037796;28;45316;-39
2022/10/15 00:25:04;;;;;;;;;12.00;9.33;;;;;16.69;86.78;100643.34;5037925;28;45340;-40
2022/10/15 00:27:30;;;;;;;;;13.67;13.00;;;;;16.70;86.79;100641.50;5038037;28;45349;-42
2022/10/15 00:29:55;;;;;;;;;16.00;13.33;;;;;16.66;87.48;100633.00;5036355;28;47370;-41
2022/10/15 00:32:20;;;;;;;;;16.33;13.67;;;;;16.63;87.29;100641.41;5037740;28;45448;-40
2022/10/15 00:34:46;;;;;;;;;9.67;8.33;;;;;16.63;87.59;100633.34;5037928;28;45317;-44
2022/10/15 00:37:12;;;;;;;;;12.00;11.00;;;;;16.55;87.64;100619.22;5038202;28;45293;-42
2022/10/15 00:39:37;;;;;;;;;13.67;12.00;;;;;16.63;87.94;100629.84;5037525;28;46894;-43
2022/10/15 00:42:03;;;;;;;;;8.00;7.67;;;;;16.59;88.07;100621.31;5037555;28;45320;-43
2022/10/15 00:44:28;;;;;;;;;12.00;9.67;;;;;16.61;88.41;100626.53;5037555;28;45409;-43
2022/10/15 00:47:13;;;;;;;;;16.67;11.00;;;;;16.56;88.33;100626.25;5037746;28;45467;-42
2022/10/15 00:49:43;;;;;;;;;10.33;9.67;;;;;16.57;88.21;100626.06;5037247;28;46332;-40
2022/10/15 00:52:15;;;;;;;;;9.25;6.00;;;;;16.43;89.04;100608.13;5037528;28;45244;-42
2022/10/15 00:54:45;;;;;;;;;5.25;3.00;;;;;16.53;88.11;100630.16;5037023;28;45516;-41
2022/10/15 00:57:12;;;;;;;;;6.75;5.75;;;;;16.53;88.67;100623.94;5037569;28;45290;-41
2022/10/15 00:59:42;;;;;;;;;6.00;6.00;;;;;16.55;88.85;100632.63;5037028;28;46977;-40
2022/10/15 01:02:07;;;;;;;;;12.33;9.33;;;;;16.52;89.11;100612.38;5037141;28;45265;-41
2022/10/15 01:04:33;;;;;;;;;9.33;5.33;;;;;16.46;89.23;100615.81;5037079;28;45214;-40
2022/10/15 01:06:59;;;;;;;;;11.67;8.00;;;;;16.50;89.41;100613.59;5037364;28;45357;-39
2022/10/15 01:09:25;;;;;;;;;7.00;6.25;;;;;16.50;89.89;100614.41;5037221;28;46488;-42
2022/10/15 01:11:52;;;;;;;;;10.00;9.00;;;;;16.51;90.15;100608.00;5036361;28;45317;-41
2022/10/15 01:14:36;;;;;;;;;9.33;6.67;;;;;16.51;89.89;100610.69;5037078;28;45412;-40
2022/10/15 01:17:31;;;;;;;;;7.50;6.75;;;;;16.51;89.97;100610.69;5037115;28;45479;-41
2022/10/15 01:20:24;;;;;;;;;6.25;6.25;;;;;16.50;89.70;100587.56;5036985;28;46115;-42
2022/10/15 01:23:05;;;;;;;;;10.25;7.00;;;;;16.51;90.32;100585.69;5036930;28;45226;-42
2022/10/15 01:25:44;;;;;;;;;8.00;5.00;;;;;16.44;89.71;100583.78;5037256;28;45354;-42
2022/10/15 01:28:36;;;;;;;;;10.75;5.50;;;;;16.47;90.41;100579.88;5037290;28;45187;-43
2022/10/15 01:31:22;;;;;;;;;10.75;4.50;;;;;16.44;90.68;100572.22;5036141;28;46221;-43
2022/10/15 01:34:01;;;;;;;;;7.25;6.00;;;;;16.42;90.59;100568.88;5036789;28;45246;-41
2022/10/15 01:36:46;;;;;;;;;7.25;5.00;;;;;16.37;90.44;100565.94;5036970;28;45354;-41
2022/10/15 01:39:32;;;;;;;;;5.75;4.50;;;;;16.39;90.62;100563.88;5036970;28;45293;-41
2022/10/15 01:42:07;;;;;;;;;5.25;5.00;;;;;16.37;90.81;100563.25;5036642;28;46146;-42
2022/10/15 01:44:35;;;;;;;;;11.25;6.75;;;;;16.36;91.43;100554.38;5036735;28;45583;-40
2022/10/15 01:47:05;;;;;;;;;9.00;7.50;;;;;16.35;91.36;100546.47;5036770;28;45350;-41
2022/10/15 01:49:36;;;;;;;;;5.50;5.50;;;;;16.32;90.94;100541.50;5036912;28;45333;-40
2022/10/15 01:52:09;;;;;;;;;5.50;5.50;;;;;16.30;91.50;100543.53;5036631;28;46123;-41
2022/10/15 01:54:36;;;;;;;;;5.50;5.50;;;;;16.29;91.91;100542.72;5036432;28;45341;-40
2022/10/15 01:57:03;;;;;;;;;6.75;6.75;;;;;16.30;92.14;100543.53;5036812;28;45504;-40
2022/10/15 01:59:31;;;;;;;;;5.00;5.00;;;;;16.27;91.62;100533.19;5036897;28;45206;-41
2022/10/15 02:01:57;;;;;;;;;6.50;6.50;;;;;16.26;92.31;100528.81;5036085;28;46192;-40
2022/10/15 02:04:26;;;;;;;;;6.00;6.00;;;;;16.26;92.59;100520.78;5036333;28;45498;-41
2022/10/15 02:07:03;;;;;;;;;10.00;5.25;;;;;16.23;92.56;100513.13;5036017;28;45289;-39
2022/10/15 02:09:40;;;;;;;;;7.25;5.50;;;;;16.23;92.36;100515.81;5036723;28;45431;-39
2022/10/15 02:12:15;;;;;;;;;8.00;5.25;;;;;16.21;92.33;100508.75;5034923;28;46132;-40
2022/10/15 02:14:53;;;;;;;;;6.67;5.33;;;;;16.24;92.86;100501.38;5036135;28;45367;-40
2022/10/15 02:17:26;;;;;;;;;7.33;6.00;;;;;16.21;93.36;100489.97;5036188;28;45400;-41
2022/10/15 02:20:04;;;;;;;;;6.00;5.00;;;;;16.20;92.75;100491.00;5018635;28;45495;-41
2022/10/15 02:22:36;;;;;;;;;9.25;5.25;;;;;16.15;93.14;100477.31;5036216;28;45386;-41
2022/10/15 02:25:15;;;;;;;;;5.00;5.00;;;;;16.21;93.19;100478.41;5036019;28;45377;-41
2022/10/15 02:27:44;;;;;;;;;9.00;5.00;;;;;16.19;93.02;100478.59;5036136;28;45391;-40
2022/10/15 02:30:11;;;;;;;;;5.67;5.67;;;;;16.19;93.50;100461.69;5036261;28;45336;-40
2022/10/15 02:32:39;;;;;;;;;5.00;4.67;;;;;16.19;93.43;100457.13;5035944;28;46415;-40
2022/10/15 02:35:07;;;;;;;;;14.67;13.00;;;;;16.19;93.96;100448.25;5035896;28;45404;-40
2022/10/15 02:37:34;;;;;;;;;18.33;17.33;;;;;16.11;94.07;100438.47;5035758;28;45388;-42
2022/10/15 02:39:59;;;;;;;;;34.00;30.00;;;;;16.17;94.45;100451.13;5036395;28;45313;-42
2022/10/15 02:42:25;;;;;;;;;45.67;34.00;;;;;16.09;94.38;100428.94;5036062;28;46261;-46
2022/10/15 02:44:51;;;;;;;;;43.33;34.33;;;;;16.17;94.39;100432.31;5039056;28;45265;-41
2022/10/15 02:47:16;;;;;;;;;50.00;42.00;;;;;16.19;94.08;100422.25;5039111;28;45427;-46
2022/10/15 02:49:42;;;;;;;;;52.33;40.00;;;;;16.18;94.47;100420.59;5039534;28;45175;-42
2022/10/15 02:52:07;;;;;;;;;46.00;36.33;;;;;16.21;94.57;100420.19;5039368;28;46081;-43
2022/10/15 02:54:32;;;;;;;;;25.67;20.33;;;;;16.19;94.19;100416.88;5039103;28;45380;-42
2022/10/15 02:56:58;;;;;;;;;21.00;17.00;;;;;16.25;94.23;100426.00;5039121;28;45424;-40
2022/10/15 02:59:23;;;;;;;;;18.67;13.33;;;;;16.27;94.65;100428.53;5039503;28;45439;-41
2022/10/15 03:01:49;;;;;;;;;10.00;8.67;;;;;16.27;94.55;100415.94;5038958;28;46224;-40
2022/10/15 03:04:14;;;;;;;;;3.50;3.25;;;;;16.28;93.84;100414.91;5039114;28;45328;-41
2022/10/15 03:06:39;;;;;;;;;5.75;5.25;;;;;16.29;94.33;100413.88;5039529;28;45501;-40
2022/10/15 03:09:05;;;;;;;;;5.50;3.00;;;;;16.28;94.13;100403.34;5039490;28;45588;-40
2022/10/15 03:11:30;;;;;;;;;1.25;1.25;;;;;16.32;93.00;100405.44;5039042;28;45366;-41
2022/10/15 03:13:55;;;;;;;;;1.50;1.00;;;;;16.33;93.87;100408.94;5039077;28;45498;-39
2022/10/15 03:16:21;;;;;;;;;2.25;2.25;;;;;16.34;93.67;100397.19;5039129;28;45510;-41
2022/10/15 03:18:46;;;;;;;;;1.00;1.00;;;;;16.34;93.96;100406.06;5039362;28;45539;-41
2022/10/15 03:21:12;;;;;;;;;1.00;1.00;;;;;16.34;94.93;100384.59;5038867;28;45796;-39
2022/10/15 03:23:37;;;;;;;;;2.00;2.00;;;;;16.36;93.76;100395.16;5038693;28;45348;-41
2022/10/15 03:26:02;;;;;;;;;1.00;1.00;;;;;16.34;95.34;100378.41;5039130;28;45420;-40
2022/10/15 03:28:28;;;;;;;;;2.25;2.25;;;;;16.36;95.44;100379.03;5039251;28;45284;-41
2022/10/15 03:30:53;;;;;;;;;0.00;0.00;;;;;16.37;94.92;100372.66;5038539;28;45422;-40
2022/10/15 03:33:18;;;;;;;;;1.50;1.00;;;;;16.36;95.45;100374.50;5038480;28;45408;-41
2022/10/15 03:35:44;;;;;;;;;1.75;1.75;;;;;16.30;95.84;100361.00;5038747;28;45642;-40
2022/10/15 03:38:09;;;;;;;;;1.00;1.00;;;;;16.35;95.54;100366.63;5039085;28;45194;-40
2022/10/15 03:40:35;;;;;;;;;1.00;1.00;;;;;16.35;96.50;100363.94;5038502;28;45453;-41
2022/10/15 03:43:00;;;;;;;;;1.25;1.25;;;;;16.37;96.61;100361.91;5038383;28;45297;-40
2022/10/15 03:45:26;;;;;;;;;1.00;1.00;;;;;16.36;96.55;100365.63;5038574;28;45233;-40
2022/10/15 03:47:52;;;;;;;;;0.75;0.75;;;;;16.36;96.56;100352.19;5038660;28;45392;-41
2022/10/15 03:50:17;;;;;;;;;1.00;1.00;;;;;16.37;96.49;100349.31;5038550;28;46098;-41
2022/10/15 03:52:43;;;;;;;;;1.75;1.00;;;;;16.38;96.53;100347.44;5038304;28;45560;-40
2022/10/15 03:55:09;;;;;;;;;1.00;1.00;;;;;16.37;96.53;100335.88;5037190;28;45402;-40
2022/10/15 03:57:36;;;;;;;;;1.00;1.00;;;;;16.39;96.96;100346.41;5038372;28;45253;-40
2022/10/15 04:00:02;;;;;;;;;0.00;0.00;;;;;16.40;96.46;100343.56;5038057;28;46095;-40
2022/10/15 04:02:30;;;;;;;;;1.00;1.00;;;;;16.41;96.40;100336.34;5038096;28;45464;-39
2022/10/15 04:04:56;;;;;;;;;0.25;0.00;;;;;16.41;96.51;100330.97;5038003;28;45248;-41
2022/10/15 04:07:21;;;;;;;;;1.00;1.00;;;;;16.42;96.76;100332.63;5038449;28;45223;-40
2022/10/15 04:09:47;;;;;;;;;0.00;0.00;;;;;16.44;96.29;100319.84;5037412;28;45385;-40
2022/10/15 04:12:12;;;;;;;;;0.25;0.00;;;;;16.45;96.44;100322.31;5037991;28;45391;-40
2022/10/15 04:14:39;;;;;;;;;1.25;0.75;;;;;16.48;96.10;100325.66;5038220;28;45348;-41
2022/10/15 04:17:04;;;;;;;;;0.00;0.00;;;;;16.49;96.45;100325.47;5037979;28;45428;-40
2022/10/15 04:19:30;;;;;;;;;0.00;0.00;;;;;16.51;95.42;100311.81;5037987;28;46286;-42
2022/10/15 04:21:55;;;;;;;;;1.00;1.00;;;;;16.52;96.35;100321.53;5037848;28;45431;-42
2022/10/15 04:24:21;;;;;;;;;0.00;0.00;;;;;16.56;96.54;100320.97;5020075;28;45412;-42
2022/10/15 04:26:46;;;;;;;;;0.00;0.00;;;;;16.52;95.92;100308.97;5038184;28;45359;-42
2022/10/15 04:29:12;;;;;;;;;0.00;0.00;;;;;16.56;96.76;100310.22;5037536;28;47056;-42
2022/10/15 04:31:37;;;;;;;;;0.00;0.00;;;;;16.59;95.78;100309.81;5037729;28;45443;-41
2022/10/15 04:34:03;;;;;;;;;0.00;0.00;;;;;16.60;96.67;100306.13;5037793;28;45309;-42
2022/10/15 04:36:28;;;;;;;;;0.00;0.00;;;;;16.62;96.26;100311.28;5037793;28;45496;-42
2022/10/15 04:38:53;;;;;;;;;1.00;1.00;;;;;16.62;95.91;100313.97;5037666;28;45264;-42
2022/10/15 04:41:19;;;;;;;;;1.25;1.00;;;;;16.52;97.11;100292.00;5037471;28;45243;-41
2022/10/15 04:43:44;;;;;;;;;3.00;1.00;;;;;16.64;96.18;100310.09;5037738;28;45329;-41
2022/10/15 04:46:10;;;;;;;;;1.00;1.00;;;;;16.64;97.17;100304.72;5037866;28;45473;-41
2022/10/15 04:48:37;;;;;;;;;0.75;0.75;;;;;16.55;96.94;100300.50;5037190;28;46085;-41
2022/10/15 04:51:07;;;;;;;;;0.60;0.20;;;;;16.64;98.31;100317.28;5037612;28;45277;-41
2022/10/15 04:53:33;;;;;;;;;1.00;1.00;;;;;16.65;96.30;100302.84;5037520;28;45302;-41
2022/10/15 04:56:02;;;;;;;;;2.00;0.25;;;;;16.63;97.41;100313.78;5037623;28;45308;-40
2022/10/15 04:58:32;;;;;;;;;1.00;1.00;;;;;16.66;97.76;100317.94;5037308;28;45488;-41
2022/10/15 05:01:03;;;;;;;;;2.00;1.00;;;;;16.68;97.57;100323.91;5037251;28;45379;-41
2022/10/15 05:03:29;;;;;;;;;2.00;1.25;;;;;16.69;97.60;100329.13;5037145;28;45359;-41
2022/10/15 05:06:02;;;;;;;;;0.75;0.75;;;;;16.70;97.02;100325.41;5037103;28;45475;-41
2022/10/15 05:08:32;;;;;;;;;3.50;0.00;;;;;16.73;97.30;100334.97;5036361;28;45426;-42
2022/10/15 05:11:02;;;;;;;;;1.50;1.00;;;;;16.70;97.31;100320.03;5037338;28;45480;-41
2022/10/15 05:13:27;;;;;;;;;1.00;0.00;;;;;16.75;97.27;100332.06;5037853;28;45249;-41
2022/10/15 05:15:53;;;;;;;;;1.50;0.00;;;;;16.76;97.44;100336.41;5037167;28;45471;-41
2022/10/15 05:18:18;;;;;;;;;0.00;0.00;;;;;16.78;96.85;100332.50;5037251;28;45604;-41
2022/10/15 05:20:43;;;;;;;;;0.00;0.00;;;;;16.61;96.88;100298.91;5037100;28;45379;-42
2022/10/15 05:23:09;;;;;;;;;0.75;0.00;;;;;16.80;96.69;100334.97;5037159;28;45336;-41
2022/10/15 05:25:34;;;;;;;;;4.00;1.00;;;;;16.82;96.32;100327.56;5037505;28;45369;-42
2022/10/15 05:27:59;;;;;;;;;1.00;0.00;;;;;16.84;97.19;100328.19;5036864;28;46009;-41
2022/10/15 05:30:25;;;;;;;;;0.00;0.00;;;;;16.85;96.54;100337.91;5037016;28;45413;-42
2022/10/15 05:32:52;;;;;;;;;3.25;0.25;;;;;16.83;96.48;100330.06;5036842;28;45805;-41
2022/10/15 05:35:17;;;;;;;;;2.00;0.75;;;;;16.85;96.83;100336.03;5037058;28;45476;-41
2022/10/15 05:37:42;;;;;;;;;0.00;0.00;;;;;16.86;96.76;100326.97;5036820;28;46103;-41
2022/10/15 05:40:08;;;;;;;;;0.50;0.50;;;;;16.87;96.15;100320.56;5036727;28;45326;-40
2022/10/15 05:42:34;;;;;;;;;2.25;1.00;;;;;16.85;96.96;100321.78;5036829;28;45348;-42
2022/10/15 05:44:59;;;;;;;;;0.00;0.00;;;;;16.86;97.15;100328.84;5036944;28;45206;-42
2022/10/15 05:47:25;;;;;;;;;0.00;0.00;;;;;16.87;97.19;100317.06;5036271;28;46327;-40
2022/10/15 05:49:50;;;;;;;;;0.25;0.00;;;;;16.87;96.39;100319.75;5036139;28;45408;-40
2022/10/15 05:52:16;;;;;;;;;1.25;0.00;;;;;16.80;96.41;100313.50;5036781;28;45547;-41
2022/10/15 05:54:41;;;;;;;;;0.75;0.75;;;;;16.89;97.06;100320.34;5036668;28;45233;-40
2022/10/15 05:57:06;;;;;;;;;0.25;0.25;;;;;16.90;95.79;100311.28;5036617;28;46074;-42
2022/10/15 05:59:32;;;;;;;;;0.00;0.00;;;;;16.90;97.17;100313.97;5036548;28;45344;-41
2022/10/15 06:01:57;;;;;;;;;0.25;0.25;;;;;16.89;96.25;100299.69;5036767;28;45390;-42
2022/10/15 06:04:23;;;;;;;;;0.75;0.75;;;;;16.90;97.29;100313.97;5036578;28;45301;-42
2022/10/15 06:06:48;;;;;;;;;1.00;0.00;;;;;16.90;96.64;100312.13;5036338;28;46361;-43
2022/10/15 06:09:13;;;;;;;;;0.00;0.00;;;;;16.90;97.01;100319.34;5036428;28;45285;-42
2022/10/15 06:11:39;;;;;;;;;0.00;0.00;;;;;16.84;96.89;100312.91;5036466;28;45357;-42
2022/10/15 06:14:04;;;;;;;;;3.00;0.00;;;;;16.89;97.30;100323.88;5036514;28;45337;-42
2022/10/15 06:16:30;;;;;;;;;1.25;1.00;;;;;16.89;97.64;100318.50;5036284;28;46038;-42
2022/10/15 06:18:55;;;;;;;;;0.00;0.00;;;;;16.89;97.67;100323.88;5038718;28;45407;-42
2022/10/15 06:21:21;;;;;;;;;1.00;1.00;;;;;16.86;98.16;100324.28;5022021;28;45403;-42
2022/10/15 06:23:46;;;;;;;;;0.00;0.00;;;;;16.89;98.20;100315.81;5039963;28;45460;-42
2022/10/15 06:26:11;;;;;;;;;0.00;0.00;;;;;16.88;97.86;100322.22;5039629;28;46241;-42
2022/10/15 06:28:38;;;;;;;;;0.50;0.50;;;;;16.86;97.81;100316.22;5039632;28;45453;-42
2022/10/15 06:31:04;;;;;;;;;1.25;0.75;;;;;16.88;98.24;100318.72;5039926;28;45421;-40
2022/10/15 06:33:30;;;;;;;;;0.75;0.00;;;;;16.88;97.74;100326.78;5039602;28;45179;-40
2022/10/15 06:36:04;;;;;;;;;0.00;0.00;;;;;16.86;98.31;100323.47;5039364;28;46099;-42
2022/10/15 06:38:30;;;;;;;;;1.00;0.00;;;;;16.87;97.73;100322.44;5039402;28;45272;-40
2022/10/15 06:40:55;;;;;;;;;0.00;0.00;;;;;16.91;97.67;100340.63;5039561;28;45251;-43
2022/10/15 06:43:20;;;;;;;;;1.00;0.00;;;;;16.92;98.74;100330.72;5039690;28;45426;-43
2022/10/15 06:45:46;;;;;;;;;0.00;0.00;;;;;16.87;97.61;100314.38;5039343;28;45999;-43
2022/10/15 06:48:11;;;;;;;;;0.00;0.00;;;;;16.94;98.28;100331.38;5038880;28;45380;-43
2022/10/15 06:50:38;;;;;;;;;0.00;0.00;;;;;16.94;97.81;100334.06;5039599;28;45398;-41
2022/10/15 06:53:04;;;;;;;;;0.00;0.00;;;;;16.94;98.80;100342.94;5039384;28;45547;-40
2022/10/15 06:55:29;;;;;;;;;1.25;0.00;;;;;16.95;97.38;100339.22;5039012;28;45460;-42
2022/10/15 06:57:55;;;;;;;;;0.50;0.50;;;;;16.96;97.87;100335.50;5039353;28;45362;-43
2022/10/15 07:00:22;;;;;;;;;1.00;0.00;;;;;16.98;98.40;100338.00;5039296;28;45367;-42
2022/10/15 07:02:48;;;;;;;;;0.50;0.50;;;;;17.00;98.42;100344.00;5039276;28;45349;-43
2022/10/15 07:05:13;;;;;;;;;2.00;0.00;;;;;17.03;98.09;100335.53;5038965;28;45434;-43
2022/10/15 07:07:39;;;;;;;;;0.25;0.25;;;;;16.99;97.27;100320.84;5039100;28;45312;-41
2022/10/15 07:10:04;;;;;;;;;0.00;0.00;;;;;17.06;97.95;100342.34;5039290;28;45283;-41
2022/10/15 07:12:30;;;;;;;;;0.00;0.00;;;;;17.04;98.52;100337.19;5039307;28;45302;-41
2022/10/15 07:14:55;;;;;;;;;0.00;0.00;;;;;17.07;97.73;100336.81;5038965;28;46386;-42
2022/10/15 07:17:20;;;;;;;;;0.00;0.00;;;;;17.14;96.76;100337.66;5039062;28;45304;-40
2022/10/15 07:19:46;;;;;;;;;2.00;0.00;;;;;17.21;97.57;100349.28;5038889;28;45464;-41
2022/10/15 07:22:11;;;;;;;;;0.00;0.00;;;;;17.25;97.37;100333.56;5039297;28;45484;-42
2022/10/15 07:24:36;;;;;;;;;0.00;0.00;;;;;17.31;96.52;100342.69;5039052;28;45360;-42
2022/10/15 07:27:02;;;;;;;;;1.00;0.00;;;;;17.33;96.89;100343.34;5038911;28;45169;-40
2022/10/15 07:29:28;;;;;;;;;2.50;1.00;;;;;17.39;96.82;100342.50;5038777;28;45400;-43
2022/10/15 07:31:53;;;;;;;;;0.00;0.00;;;;;17.48;96.27;100354.75;5039065;28;45399;-41
2022/10/15 07:34:19;;;;;;;;;0.00;0.00;;;;;17.53;95.99;100355.00;5038288;28;46401;-43
2022/10/15 07:36:44;;;;;;;;;0.00;0.00;;;;;17.60;95.63;100353.13;5038848;28;45407;-42
2022/10/15 07:39:10;;;;;;;;;1.25;1.00;;;;;17.62;95.74;100358.34;5038932;28;45350;-42
2022/10/15 07:41:35;;;;;;;;;0.00;0.00;;;;;17.62;95.44;100358.34;5038842;28;45498;-42
2022/10/15 07:44:01;;;;;;;;;0.00;0.00;;;;;17.58;95.52;100349.84;5038425;28;45443;-41
2022/10/15 07:46:26;;;;;;;;;0.00;0.00;;;;;17.69;95.25;100362.69;5038535;28;45315;-41
2022/10/15 07:48:52;;;;;;;;;0.50;0.00;;;;;17.74;95.46;100369.31;5038455;28;45401;-42
2022/10/15 07:51:17;;;;;;;;;0.25;0.25;;;;;17.82;95.47;100363.78;5038751;28;45345;-42
2022/10/15 07:53:43;;;;;;;;;0.75;0.00;;;;;17.82;94.81;100375.38;5038100;28;46313;-42
2022/10/15 07:56:13;;;;;;;;;0.50;0.25;;;;;17.82;94.87;100385.31;5038091;28;45340;-41
2022/10/15 07:58:38;;;;;;;;;0.60;0.60;;;;;17.80;94.17;100382.00;5037004;28;45416;-41
2022/10/15 08:01:05;;;;;;;;;0.00;0.00;;;;;17.78;94.53;100389.44;5037849;28;45531;-42
2022/10/15 08:03:30;;;;;;;;;0.00;0.00;;;;;17.79;94.69;100391.94;5037905;28;47151;-41
2022/10/15 08:05:59;;;;;;;;;0.00;0.00;;;;;17.80;94.71;100398.16;5038157;28;45411;-42
2022/10/15 08:08:24;;;;;;;;;0.00;0.00;;;;;17.85;94.14;100403.75;5038374;28;45390;-42
2022/10/15 08:10:49;;;;;;;;;0.00;0.00;;;;;17.85;94.30;100398.38;5038534;28;45343;-42
2022/10/15 08:13:15;;;;;;;;;0.00;0.00;;;;;17.90;94.32;100383.25;5038094;28;45300;-42
2022/10/15 08:15:41;;;;;;;;;0.00;0.00;;;;;17.96;93.37;100400.47;5038114;28;45399;-41
2022/10/15 08:18:10;;;;;;;;;0.40;0.40;;;;;18.02;93.27;100404.19;5038106;28;45459;-42
2022/10/15 08:20:36;;;;;;;;;0.00;0.00;;;;;18.10;92.88;100396.75;5038375;28;45286;-42
2022/10/15 08:23:03;;;;;;;;;0.00;0.00;;;;;18.35;91.41;100390.78;5038110;28;45355;-42
2022/10/15 08:25:29;;;;;;;;;0.00;0.00;;;;;18.63;90.10;100391.44;5037811;28;45332;-43
2022/10/15 08:27:55;;;;;;;;;1.60;0.00;;;;;18.91;88.49;100387.69;5037849;28;45525;-41
2022/10/15 08:30:20;;;;;;;;;0.00;0.00;;;;;19.09;87.11;100390.56;5037943;28;45560;-41
2022/10/15 08:32:46;;;;;;;;;0.00;0.00;;;;;19.23;85.70;100390.53;5037657;28;46062;-42
2022/10/15 08:35:11;;;;;;;;;2.00;0.00;;;;;19.37;84.67;100390.25;5037614;28;45296;-41
2022/10/15 08:37:36;;;;;;;;;1.00;1.00;;;;;19.81;82.93;100398.63;5037786;28;45229;-41
2022/10/15 08:40:04;;;;;;;;;0.00;0.00;;;;;20.07;81.04;100400.34;5037617;28;45427;-41
2022/10/15 08:42:36;;;;;;;;;0.00;0.00;;;;;20.61;78.24;100410.59;5037472;28;47303;-42
2022/10/15 08:45:09;;;;;;;;;0.00;0.00;;;;;20.91;76.47;100408.03;5037675;28;45305;-42
2022/10/15 08:47:44;;;;;;;;;0.00;0.00;;;;;21.53;74.32;100413.44;5037667;28;45416;-40
2022/10/15 08:50:34;;;;;;;;;0.00;0.00;;;;;21.63;73.23;100421.81;5037743;28;45308;-42
2022/10/15 08:52:59;;;;;;;;;0.00;0.00;;;;;23.19;70.32;100418.22;5037654;28;46642;-42
2022/10/15 08:55:34;;;;;;;;;1.00;0.00;;;;;23.41;67.31;100406.50;5037632;28;45320;-42
2022/10/15 08:58:15;;;;;;;;;0.00;0.00;;;;;23.33;67.14;100409.56;5037824;28;45424;-41
2022/10/15 09:00:50;;;;;;;;;0.00;0.00;;;;;23.26;65.88;100413.47;5037836;28;45361;-42
2022/10/15 09:03:25;;;;;;;;;0.60;0.00;;;;;22.91;67.54;100420.56;5037420;28;46364;-42
2022/10/15 09:06:14;;;;;;;;;0.60;0.60;;;;;22.91;67.65;100412.44;5037501;28;45330;-42
2022/10/15 09:08:57;;;;;;;;;0.00;0.00;;;;;23.89;65.12;100423.47;5037679;28;45332;-40
2022/10/15 09:11:47;;;;;;;;;0.80;0.00;;;;;24.37;63.54;100427.63;5037588;28;45314;-41
2022/10/15 09:14:22;;;;;;;;;0.00;0.00;;;;;24.37;62.52;100419.47;5037259;28;46096;-42
2022/10/15 09:16:49;;;;;;;;;0.00;0.00;;;;;24.44;62.89;100425.63;5037223;28;45509;-41
2022/10/15 09:19:21;;;;;;;;;1.00;0.00;;;;;24.58;63.34;100426.94;5037169;28;45237;-42
2022/10/15 09:21:49;;;;;;;;;0.00;0.00;;;;;24.82;60.23;100424.88;5036669;28;45333;-42
2022/10/15 09:24:22;;;;;;;;;0.00;0.00;;;;;25.75;59.45;100435.16;5037180;28;45425;-40
2022/10/15 09:27:18;;;;;;;;;1.40;0.00;;;;;27.11;55.91;100432.09;5037009;28;45313;-40
2022/10/15 09:30:02;;;;;;;;;0.00;0.00;;;;;27.76;56.17;100440.06;5037211;28;45316;-39
2022/10/15 09:32:47;;;;;;;;;0.00;0.00;;;;;27.71;52.69;100421.69;5035994;28;45279;-42
2022/10/15 09:35:21;;;;;;;;;0.00;0.00;;;;;28.13;51.38;100442.63;5036551;28;47194;-40
2022/10/15 09:38:17;;;;;;;;;0.20;0.00;;;;;27.86;52.25;100445.56;5037174;28;45497;-40
2022/10/15 09:41:04;;;;;;;;;1.00;0.00;;;;;27.89;52.88;100444.19;5036956;28;45324;-40
2022/10/15 09:43:34;;;;;;;;;1.80;0.40;;;;;29.08;51.82;100453.91;5036931;28;45407;-41
2022/10/15 09:46:01;;;;;;;;;0.80;0.00;;;;;30.15;45.47;100451.91;5035913;28;46651;-42
2022/10/15 09:48:32;;;;;;;;;0.00;0.00;;;;;30.99;45.07;100456.19;5036855;28;45320;-41
2022/10/15 09:51:05;;;;;;;;;0.00;0.00;;;;;31.48;42.68;100463.38;5036831;28;45563;-42
2022/10/15 09:53:54;;;;;;;;;0.60;0.00;;;;;31.12;43.47;100454.69;5038832;28;45309;-42
2022/10/15 09:56:24;;;;;;;;;0.00;0.00;;;;;31.00;43.12;100466.06;5040057;28;45455;-42
2022/10/15 09:58:57;;;;;;;;;0.00;0.00;;;;;30.79;42.65;100464.59;5040188;28;45239;-43
2022/10/15 10:01:27;;;;;;;;;0.00;0.00;;;;;30.48;43.05;100473.06;5040356;28;45427;-41
2022/10/15 10:04:18;;;;;;;;;0.00;0.00;;;;;29.55;45.00;100482.03;5040499;28;45376;-41
2022/10/15 10:06:50;;;;;;;;;0.00;0.00;;;;;29.09;45.82;100487.59;5039933;28;45383;-41
2022/10/15 10:09:20;;;;;;;;;0.00;0.00;;;;;28.94;47.12;100496.63;5040237;28;45333;-42
2022/10/15 10:11:52;;;;;;;;;0.00;0.00;;;;;28.29;49.57;100503.66;5040043;28;45297;-41
2022/10/15 10:14:25;;;;;;;;;0.60;0.00;;;;;27.53;48.70;100474.91;5040304;28;45370;-41
2022/10/15 10:17:17;;;;;;;;;0.00;0.00;;;;;27.81;48.42;100495.59;5039866;28;47094;-42
2022/10/15 10:19:59;;;;;;;;;0.00;0.00;;;;;27.89;46.79;100496.97;5039798;28;45478;-41
2022/10/15 10:22:25;;;;;;;;;0.00;0.00;;;;;27.51;48.80;100495.38;5040011;28;45342;-41
2022/10/15 10:24:50;;;;;;;;;0.25;0.25;;;;;27.18;49.97;100511.06;5040019;28;45208;-42
2022/10/15 10:27:28;;;;;;;;;0.00;0.00;;;;;28.43;46.55;100501.25;5039728;28;46281;-41
2022/10/15 10:30:00;;;;;;;;;0.00;0.00;;;;;28.95;45.30;100490.06;5039255;28;45277;-41
2022/10/15 10:32:30;;;;;;;;;0.00;0.00;;;;;28.39;46.33;100500.16;5021901;28;45269;-40
2022/10/15 10:34:59;;;;;;;;;0.00;0.00;;;;;28.54;45.00;100505.66;5039661;28;45329;-41
2022/10/15 10:37:24;;;;;;;;;1.00;0.00;;;;;28.30;45.63;100494.34;5039652;28;46055;-42
2022/10/15 10:39:59;;;;;;;;;0.00;0.00;;;;;27.73;48.31;100511.69;5039523;28;45392;-41
2022/10/15 10:42:24;;;;;;;;;0.00;0.00;;;;;27.38;46.20;100507.59;5038959;28;45254;-41
2022/10/15 10:44:52;;;;;;;;;0.00;0.00;;;;;27.17;49.20;100519.50;5039996;28;45360;-41
2022/10/15 10:47:22;;;;;;;;;0.00;0.00;;;;;26.94;47.37;100516.03;5039380;28;46036;-41
2022/10/15 10:49:55;;;;;;;;;0.00;0.00;;;;;27.03;48.08;100502.72;5039135;28;45469;-41
2022/10/15 10:52:31;;;;;;;;;0.00;0.00;;;;;27.26;47.90;100515.19;5039523;28;45456;-42
2022/10/15 10:55:05;;;;;;;;;0.00;0.00;;;;;27.29;46.89;100517.38;5039482;28;45323;-41
2022/10/15 10:57:42;;;;;;;;;0.00;0.00;;;;;27.46;47.32;100512.56;5039166;28;46106;-41
2022/10/15 11:00:12;;;;;;;;;0.00;0.00;;;;;27.62;45.96;100513.50;5039141;28;45459;-42
2022/10/15 11:02:40;;;;;;;;;0.00;0.00;;;;;28.26;45.66;100528.81;5039527;28;45163;-41
2022/10/15 11:05:06;;;;;;;;;0.00;0.00;;;;;28.54;43.17;100531.09;5038757;28;45554;-42
2022/10/15 11:08:09;;;;;;;;;1.80;0.00;;;;;28.66;45.88;100530.03;5039130;28;46351;-41
2022/10/15 11:10:47;;;;;;;;;0.00;0.00;;;;;28.04;45.66;100518.91;5039047;28;45484;-41
2022/10/15 11:13:26;;;;;;;;;0.00;0.00;;;;;27.01;46.81;100540.34;5039283;28;45326;-40
2022/10/15 11:15:59;;;;;;;;;1.20;1.20;;;;;26.18;48.47;100546.06;5039335;28;45329;-41
2022/10/15 11:18:51;;;;;;;;;0.40;0.00;;;;;26.00;48.61;100535.47;5038958;28;46130;-42
2022/10/15 11:21:54;;;;;;;;;0.00;0.00;;;;;29.17;45.18;100535.53;5038519;28;45340;-41
2022/10/15 11:24:31;;;;;;;;;0.00;0.00;;;;;29.53;44.08;100547.25;5039134;28;45423;-41
2022/10/15 11:27:26;;;;;;;;;0.00;0.00;;;;;28.80;44.61;100547.53;5039085;28;45348;-40
2022/10/15 11:30:08;;;;;;;;;0.00;0.00;;;;;27.59;45.22;100552.28;5038956;28;46232;-41
2022/10/15 11:32:51;;;;;;;;;0.00;0.00;;;;;27.27;48.11;100525.03;5038870;28;45362;-40
2022/10/15 11:35:44;;;;;;;;;0.00;0.00;;;;;28.55;44.72;100538.22;5038744;28;45453;-41